sensor_id;sensor_type;location;lat;lon;timestamp;P1;durP1;ratioP1;P2;durP2;ratioP2
25153;SDS011;47555;51.038;6.280;2022-08-21T00:01:16;8.60;;;6.78;;
25153;SDS011;47555;51.038;6.280;2022-08-21T00:03:44;8.43;;;7.18;;
25153;SDS011;47555;51.038;6.280;2022-08-21T00:06:13;8.63;;;7.35;;
25153;SDS011;47555;51.038;6.280;2022-08-21T00:08:40;10.13;;;7.90;;
25153;SDS011;47555;51.038;6.280;2022-08-21T00:11:06;9.02;;;8.13;;
25153;SDS011;47555;51.038;6.280;2022-08-21T00:13:32;8.00;;;7.20;;
25153;SDS011;47555;51.038;6.280;2022-08-21T00:15:58;13.00;;;8.05;;
25153;SDS011;47555;51.038;6.280;2022-08-21T00:18:24;8.93;;;8.02;;
25153;SDS011;47555;51.038;6.280;2022-08-21T00:20:50;8.93;;;7.90;;
25153;SDS011;47555;51.038;6.280;2022-08-21T00:23:16;10.38;;;8.57;;
25153;SDS011;47555;51.038;6.280;2022-08-21T00:25:42;10.32;;;8.18;;
25153;SDS011;47555;51.038;6.280;2022-08-21T00:28:09;9.40;;;8.18;;
25153;SDS011;47555;51.038;6.280;2022-08-21T00:30:35;9.32;;;8.15;;
25153;SDS011;47555;51.038;6.280;2022-08-21T00:33:01;9.13;;;8.18;;
25153;SDS011;47555;51.038;6.280;2022-08-21T00:35:30;9.93;;;8.73;;
25153;SDS011;47555;51.038;6.280;2022-08-21T00:37:59;9.63;;;8.45;;
25153;SDS011;47555;51.038;6.280;2022-08-21T00:43:22;9.90;;;7.85;;
25153;SDS011;47555;51.038;6.280;2022-08-21T00:45:51;9.50;;;8.57;;
25153;SDS011;47555;51.038;6.280;2022-08-21T00:48:18;13.18;;;9.35;;
25153;SDS011;47555;51.038;6.280;2022-08-21T00:50:58;13.63;;;10.15;;
25153;SDS011;47555;51.038;6.280;2022-08-21T00:53:27;13.85;;;9.73;;
25153;SDS011;47555;51.038;6.280;2022-08-21T00:55:55;13.15;;;10.02;;
25153;SDS011;47555;51.038;6.280;2022-08-21T00:58:22;13.40;;;9.93;;
25153;SDS011;47555;51.038;6.280;2022-08-21T01:00:49;12.35;;;9.40;;
25153;SDS011;47555;51.038;6.280;2022-08-21T01:03:17;11.52;;;8.75;;
25153;SDS011;47555;51.038;6.280;2022-08-21T01:05:45;12.93;;;9.50;;
25153;SDS011;47555;51.038;6.280;2022-08-21T01:08:11;11.80;;;9.23;;
25153;SDS011;47555;51.038;6.280;2022-08-21T01:10:38;11.88;;;9.27;;
25153;SDS011;47555;51.038;6.280;2022-08-21T01:13:05;11.55;;;8.80;;
25153;SDS011;47555;51.038;6.280;2022-08-21T01:15:37;11.25;;;8.32;;
25153;SDS011;47555;51.038;6.280;2022-08-21T01:18:07;9.68;;;7.68;;
25153;SDS011;47555;51.038;6.280;2022-08-21T01:20:36;10.88;;;8.48;;
25153;SDS011;47555;51.038;6.280;2022-08-21T01:23:03;11.70;;;7.63;;
25153;SDS011;47555;51.038;6.280;2022-08-21T01:25:30;9.18;;;7.72;;
25153;SDS011;47555;51.038;6.280;2022-08-21T01:27:56;9.15;;;7.03;;
25153;SDS011;47555;51.038;6.280;2022-08-21T01:30:25;8.85;;;7.53;;
25153;SDS011;47555;51.038;6.280;2022-08-21T01:32:52;9.70;;;7.00;;
25153;SDS011;47555;51.038;6.280;2022-08-21T01:35:20;10.65;;;7.32;;
25153;SDS011;47555;51.038;6.280;2022-08-21T01:37:46;9.35;;;7.00;;
25153;SDS011;47555;51.038;6.280;2022-08-21T01:40:12;10.32;;;7.18;;
25153;SDS011;47555;51.038;6.280;2022-08-21T01:42:40;10.65;;;7.30;;
25153;SDS011;47555;51.038;6.280;2022-08-21T01:45:07;13.57;;;7.95;;
25153;SDS011;47555;51.038;6.280;2022-08-21T01:47:34;10.77;;;8.25;;
25153;SDS011;47555;51.038;6.280;2022-08-21T01:50:00;8.18;;;6.40;;
25153;SDS011;47555;51.038;6.280;2022-08-21T01:52:26;8.50;;;6.75;;
25153;SDS011;47555;51.038;6.280;2022-08-21T01:54:53;8.75;;;6.50;;
25153;SDS011;47555;51.038;6.280;2022-08-21T01:57:18;8.50;;;6.90;;
25153;SDS011;47555;51.038;6.280;2022-08-21T01:59:44;10.10;;;6.70;;
25153;SDS011;47555;51.038;6.280;2022-08-21T02:02:10;8.75;;;6.72;;
25153;SDS011;47555;51.038;6.280;2022-08-21T02:04:35;10.02;;;6.57;;
25153;SDS011;47555;51.038;6.280;2022-08-21T02:07:01;8.98;;;7.57;;
25153;SDS011;47555;51.038;6.280;2022-08-21T02:09:27;8.25;;;6.50;;
25153;SDS011;47555;51.038;6.280;2022-08-21T02:11:53;9.35;;;6.80;;
25153;SDS011;47555;51.038;6.280;2022-08-21T02:14:19;9.35;;;6.55;;
25153;SDS011;47555;51.038;6.280;2022-08-21T02:16:45;6.97;;;6.28;;
25153;SDS011;47555;51.038;6.280;2022-08-21T02:19:12;7.57;;;6.40;;
25153;SDS011;47555;51.038;6.280;2022-08-21T02:21:39;8.98;;;7.20;;
25153;SDS011;47555;51.038;6.280;2022-08-21T02:24:05;9.82;;;6.88;;
25153;SDS011;47555;51.038;6.280;2022-08-21T02:26:31;6.80;;;5.80;;
25153;SDS011;47555;51.038;6.280;2022-08-21T02:28:57;9.05;;;7.05;;
25153;SDS011;47555;51.038;6.280;2022-08-21T02:31:23;7.90;;;6.38;;
25153;SDS011;47555;51.038;6.280;2022-08-21T02:33:49;8.88;;;6.68;;
25153;SDS011;47555;51.038;6.280;2022-08-21T02:36:15;7.90;;;6.20;;
25153;SDS011;47555;51.038;6.280;2022-08-21T02:38:41;9.13;;;6.57;;
25153;SDS011;47555;51.038;6.280;2022-08-21T02:41:09;7.57;;;5.82;;
25153;SDS011;47555;51.038;6.280;2022-08-21T02:43:37;6.88;;;6.18;;
25153;SDS011;47555;51.038;6.280;2022-08-21T02:46:03;9.00;;;6.60;;
25153;SDS011;47555;51.038;6.280;2022-08-21T02:48:30;7.93;;;6.10;;
25153;SDS011;47555;51.038;6.280;2022-08-21T02:50:59;7.45;;;6.53;;
25153;SDS011;47555;51.038;6.280;2022-08-21T02:53:26;8.07;;;6.38;;
25153;SDS011;47555;51.038;6.280;2022-08-21T02:55:53;8.55;;;6.45;;
25153;SDS011;47555;51.038;6.280;2022-08-21T02:58:23;8.73;;;5.85;;
25153;SDS011;47555;51.038;6.280;2022-08-21T03:00:52;7.30;;;6.00;;
25153;SDS011;47555;51.038;6.280;2022-08-21T03:03:18;6.70;;;6.00;;
25153;SDS011;47555;51.038;6.280;2022-08-21T03:05:46;9.10;;;6.75;;
25153;SDS011;47555;51.038;6.280;2022-08-21T03:08:12;10.98;;;6.43;;
25153;SDS011;47555;51.038;6.280;2022-08-21T03:10:41;12.68;;;6.55;;
25153;SDS011;47555;51.038;6.280;2022-08-21T03:13:08;8.20;;;6.20;;
25153;SDS011;47555;51.038;6.280;2022-08-21T03:15:35;8.35;;;6.43;;
25153;SDS011;47555;51.038;6.280;2022-08-21T03:18:01;8.45;;;6.43;;
25153;SDS011;47555;51.038;6.280;2022-08-21T03:20:29;8.57;;;6.00;;
25153;SDS011;47555;51.038;6.280;2022-08-21T03:22:57;9.32;;;6.03;;
25153;SDS011;47555;51.038;6.280;2022-08-21T03:25:23;6.90;;;5.70;;
25153;SDS011;47555;51.038;6.280;2022-08-21T03:27:50;7.35;;;5.93;;
25153;SDS011;47555;51.038;6.280;2022-08-21T03:30:16;8.35;;;6.47;;
25153;SDS011;47555;51.038;6.280;2022-08-21T03:32:43;7.95;;;5.63;;
25153;SDS011;47555;51.038;6.280;2022-08-21T03:35:09;7.85;;;5.72;;
25153;SDS011;47555;51.038;6.280;2022-08-21T03:37:35;7.18;;;5.70;;
25153;SDS011;47555;51.038;6.280;2022-08-21T03:40:03;8.50;;;5.93;;
25153;SDS011;47555;51.038;6.280;2022-08-21T03:42:29;8.23;;;5.82;;
25153;SDS011;47555;51.038;6.280;2022-08-21T03:44:55;7.25;;;5.55;;
25153;SDS011;47555;51.038;6.280;2022-08-21T03:47:21;8.50;;;5.88;;
25153;SDS011;47555;51.038;6.280;2022-08-21T03:49:47;7.05;;;5.78;;
25153;SDS011;47555;51.038;6.280;2022-08-21T03:52:12;9.43;;;6.10;;
25153;SDS011;47555;51.038;6.280;2022-08-21T03:54:38;7.45;;;5.72;;
25153;SDS011;47555;51.038;6.280;2022-08-21T03:57:06;6.97;;;5.40;;
25153;SDS011;47555;51.038;6.280;2022-08-21T03:59:33;7.60;;;5.32;;
25153;SDS011;47555;51.038;6.280;2022-08-21T04:01:59;6.47;;;5.82;;
25153;SDS011;47555;51.038;6.280;2022-08-21T04:04:27;6.38;;;5.72;;
25153;SDS011;47555;51.038;6.280;2022-08-21T04:06:53;8.73;;;5.68;;
25153;SDS011;47555;51.038;6.280;2022-08-21T04:09:20;7.38;;;5.68;;
25153;SDS011;47555;51.038;6.280;2022-08-21T04:11:45;8.32;;;5.95;;
25153;SDS011;47555;51.038;6.280;2022-08-21T04:14:12;7.85;;;6.13;;
25153;SDS011;47555;51.038;6.280;2022-08-21T04:16:39;8.60;;;6.28;;
25153;SDS011;47555;51.038;6.280;2022-08-21T04:19:06;8.45;;;5.65;;
25153;SDS011;47555;51.038;6.280;2022-08-21T04:21:32;10.52;;;5.97;;
25153;SDS011;47555;51.038;6.280;2022-08-21T04:23:58;8.27;;;5.50;;
25153;SDS011;47555;51.038;6.280;2022-08-21T04:26:24;7.63;;;5.30;;
25153;SDS011;47555;51.038;6.280;2022-08-21T04:28:50;9.68;;;5.82;;
25153;SDS011;47555;51.038;6.280;2022-08-21T04:31:17;9.48;;;5.70;;
25153;SDS011;47555;51.038;6.280;2022-08-21T04:33:43;6.93;;;5.35;;
25153;SDS011;47555;51.038;6.280;2022-08-21T04:36:09;6.63;;;5.90;;
25153;SDS011;47555;51.038;6.280;2022-08-21T04:38:35;7.35;;;5.38;;
25153;SDS011;47555;51.038;6.280;2022-08-21T04:41:01;6.85;;;5.45;;
25153;SDS011;47555;51.038;6.280;2022-08-21T04:43:27;8.05;;;5.80;;
25153;SDS011;47555;51.038;6.280;2022-08-21T04:45:53;8.35;;;5.80;;
25153;SDS011;47555;51.038;6.280;2022-08-21T04:48:20;7.03;;;5.13;;
25153;SDS011;47555;51.038;6.280;2022-08-21T04:53:43;7.68;;;5.63;;
25153;SDS011;47555;51.038;6.280;2022-08-21T04:56:22;7.90;;;5.13;;
25153;SDS011;47555;51.038;6.280;2022-08-21T04:58:51;9.13;;;6.20;;
25153;SDS011;47555;51.038;6.280;2022-08-21T05:01:19;7.47;;;5.07;;
25153;SDS011;47555;51.038;6.280;2022-08-21T05:03:49;7.13;;;5.35;;
25153;SDS011;47555;51.038;6.280;2022-08-21T05:06:17;8.85;;;5.10;;
25153;SDS011;47555;51.038;6.280;2022-08-21T05:08:43;7.10;;;5.05;;
25153;SDS011;47555;51.038;6.280;2022-08-21T05:11:11;7.53;;;5.78;;
25153;SDS011;47555;51.038;6.280;2022-08-21T05:13:38;6.07;;;5.47;;
25153;SDS011;47555;51.038;6.280;2022-08-21T05:16:05;9.13;;;5.80;;
25153;SDS011;47555;51.038;6.280;2022-08-21T05:18:31;9.48;;;6.07;;
25153;SDS011;47555;51.038;6.280;2022-08-21T05:20:57;8.23;;;5.72;;
25153;SDS011;47555;51.038;6.280;2022-08-21T05:23:23;10.75;;;5.78;;
25153;SDS011;47555;51.038;6.280;2022-08-21T05:25:49;7.22;;;5.68;;
25153;SDS011;47555;51.038;6.280;2022-08-21T05:28:16;7.72;;;5.57;;
25153;SDS011;47555;51.038;6.280;2022-08-21T05:30:43;6.85;;;5.28;;
25153;SDS011;47555;51.038;6.280;2022-08-21T05:33:09;9.32;;;5.68;;
25153;SDS011;47555;51.038;6.280;2022-08-21T05:35:34;7.20;;;5.80;;
25153;SDS011;47555;51.038;6.280;2022-08-21T05:38:00;9.52;;;5.88;;
25153;SDS011;47555;51.038;6.280;2022-08-21T05:40:26;6.55;;;5.57;;
25153;SDS011;47555;51.038;6.280;2022-08-21T05:42:53;8.38;;;5.60;;
25153;SDS011;47555;51.038;6.280;2022-08-21T05:45:19;8.70;;;5.85;;
25153;SDS011;47555;51.038;6.280;2022-08-21T05:47:49;7.20;;;5.07;;
25153;SDS011;47555;51.038;6.280;2022-08-21T05:50:14;8.57;;;4.85;;
25153;SDS011;47555;51.038;6.280;2022-08-21T05:52:40;8.20;;;5.22;;
25153;SDS011;47555;51.038;6.280;2022-08-21T05:55:05;7.18;;;5.40;;
25153;SDS011;47555;51.038;6.280;2022-08-21T05:57:31;8.77;;;4.60;;
25153;SDS011;47555;51.038;6.280;2022-08-21T05:59:57;7.80;;;5.32;;
25153;SDS011;47555;51.038;6.280;2022-08-21T06:02:22;10.60;;;5.97;;
25153;SDS011;47555;51.038;6.280;2022-08-21T06:04:48;5.95;;;4.25;;
25153;SDS011;47555;51.038;6.280;2022-08-21T06:07:17;7.18;;;5.00;;
25153;SDS011;47555;51.038;6.280;2022-08-21T06:09:42;6.80;;;4.53;;
25153;SDS011;47555;51.038;6.280;2022-08-21T06:12:09;7.95;;;4.63;;
25153;SDS011;47555;51.038;6.280;2022-08-21T06:14:37;7.43;;;4.65;;
25153;SDS011;47555;51.038;6.280;2022-08-21T06:17:08;6.10;;;4.38;;
25153;SDS011;47555;51.038;6.280;2022-08-21T06:19:35;5.82;;;4.07;;
25153;SDS011;47555;51.038;6.280;2022-08-21T06:22:01;7.30;;;4.45;;
25153;SDS011;47555;51.038;6.280;2022-08-21T06:24:28;6.55;;;4.10;;
25153;SDS011;47555;51.038;6.280;2022-08-21T06:26:54;5.65;;;3.80;;
25153;SDS011;47555;51.038;6.280;2022-08-21T06:29:20;7.53;;;4.00;;
25153;SDS011;47555;51.038;6.280;2022-08-21T06:31:46;7.32;;;3.95;;
25153;SDS011;47555;51.038;6.280;2022-08-21T06:34:14;7.57;;;3.90;;
25153;SDS011;47555;51.038;6.280;2022-08-21T06:36:40;7.15;;;3.83;;
25153;SDS011;47555;51.038;6.280;2022-08-21T06:39:06;8.50;;;3.90;;
25153;SDS011;47555;51.038;6.280;2022-08-21T06:41:32;7.57;;;3.53;;
25153;SDS011;47555;51.038;6.280;2022-08-21T06:43:58;5.28;;;3.20;;
25153;SDS011;47555;51.038;6.280;2022-08-21T06:46:25;4.50;;;3.03;;
25153;SDS011;47555;51.038;6.280;2022-08-21T06:48:53;4.72;;;3.47;;
25153;SDS011;47555;51.038;6.280;2022-08-21T06:51:20;7.47;;;3.35;;
25153;SDS011;47555;51.038;6.280;2022-08-21T06:53:46;7.00;;;3.58;;
25153;SDS011;47555;51.038;6.280;2022-08-21T06:56:12;5.93;;;3.10;;
25153;SDS011;47555;51.038;6.280;2022-08-21T06:58:37;7.35;;;2.88;;
25153;SDS011;47555;51.038;6.280;2022-08-21T07:01:03;5.95;;;2.85;;
25153;SDS011;47555;51.038;6.280;2022-08-21T07:03:30;7.75;;;3.20;;
25153;SDS011;47555;51.038;6.280;2022-08-21T07:06:00;3.92;;;2.65;;
25153;SDS011;47555;51.038;6.280;2022-08-21T07:08:27;6.28;;;2.92;;
25153;SDS011;47555;51.038;6.280;2022-08-21T07:10:53;3.60;;;2.40;;
25153;SDS011;47555;51.038;6.280;2022-08-21T07:13:23;9.35;;;2.70;;
25153;SDS011;47555;51.038;6.280;2022-08-21T07:15:49;4.03;;;2.42;;
25153;SDS011;47555;51.038;6.280;2022-08-21T07:18:15;6.38;;;3.00;;
25153;SDS011;47555;51.038;6.280;2022-08-21T07:20:41;3.80;;;2.42;;
25153;SDS011;47555;51.038;6.280;2022-08-21T07:23:08;4.97;;;2.90;;
25153;SDS011;47555;51.038;6.280;2022-08-21T07:25:42;7.03;;;3.13;;
25153;SDS011;47555;51.038;6.280;2022-08-21T07:28:07;4.20;;;2.10;;
25153;SDS011;47555;51.038;6.280;2022-08-21T07:30:33;4.88;;;2.17;;
25153;SDS011;47555;51.038;6.280;2022-08-21T07:32:58;4.93;;;2.15;;
25153;SDS011;47555;51.038;6.280;2022-08-21T07:35:24;5.68;;;2.30;;
25153;SDS011;47555;51.038;6.280;2022-08-21T07:37:50;6.60;;;2.58;;
25153;SDS011;47555;51.038;6.280;2022-08-21T07:40:16;6.07;;;2.20;;
25153;SDS011;47555;51.038;6.280;2022-08-21T07:42:42;5.40;;;2.03;;
25153;SDS011;47555;51.038;6.280;2022-08-21T07:45:09;3.03;;;1.70;;
25153;SDS011;47555;51.038;6.280;2022-08-21T07:47:36;5.93;;;2.00;;
25153;SDS011;47555;51.038;6.280;2022-08-21T07:50:03;5.22;;;1.75;;
25153;SDS011;47555;51.038;6.280;2022-08-21T07:52:30;4.85;;;2.08;;
25153;SDS011;47555;51.038;6.280;2022-08-21T07:54:57;4.25;;;1.63;;
25153;SDS011;47555;51.038;6.280;2022-08-21T07:57:22;4.10;;;1.55;;
25153;SDS011;47555;51.038;6.280;2022-08-21T07:59:48;3.47;;;1.40;;
25153;SDS011;47555;51.038;6.280;2022-08-21T08:02:24;2.05;;;1.50;;
25153;SDS011;47555;51.038;6.280;2022-08-21T08:04:51;2.95;;;1.60;;
25153;SDS011;47555;51.038;6.280;2022-08-21T08:07:16;3.53;;;1.30;;
25153;SDS011;47555;51.038;6.280;2022-08-21T08:09:44;3.00;;;1.30;;
25153;SDS011;47555;51.038;6.280;2022-08-21T08:12:10;4.03;;;1.20;;
25153;SDS011;47555;51.038;6.280;2022-08-21T08:14:35;1.73;;;1.02;;
25153;SDS011;47555;51.038;6.280;2022-08-21T08:17:01;2.90;;;1.10;;
25153;SDS011;47555;51.038;6.280;2022-08-21T08:19:28;1.55;;;1.10;;
25153;SDS011;47555;51.038;6.280;2022-08-21T08:21:53;2.35;;;1.27;;
25153;SDS011;47555;51.038;6.280;2022-08-21T08:24:19;4.75;;;1.30;;
25153;SDS011;47555;51.038;6.280;2022-08-21T08:26:45;3.47;;;1.30;;
25153;SDS011;47555;51.038;6.280;2022-08-21T08:29:11;3.28;;;1.20;;
25153;SDS011;47555;51.038;6.280;2022-08-21T08:31:36;3.58;;;1.40;;
25153;SDS011;47555;51.038;6.280;2022-08-21T08:34:02;2.35;;;1.10;;
25153;SDS011;47555;51.038;6.280;2022-08-21T08:36:31;5.15;;;1.70;;
25153;SDS011;47555;51.038;6.280;2022-08-21T08:38:59;4.78;;;1.40;;
25153;SDS011;47555;51.038;6.280;2022-08-21T08:41:25;9.63;;;1.83;;
25153;SDS011;47555;51.038;6.280;2022-08-21T08:43:52;3.30;;;1.63;;
25153;SDS011;47555;51.038;6.280;2022-08-21T08:46:21;6.45;;;1.80;;
25153;SDS011;47555;51.038;6.280;2022-08-21T08:49:08;2.80;;;1.30;;
25153;SDS011;47555;51.038;6.280;2022-08-21T08:51:51;3.97;;;1.60;;
25153;SDS011;47555;51.038;6.280;2022-08-21T08:54:42;3.63;;;1.50;;
25153;SDS011;47555;51.038;6.280;2022-08-21T08:57:14;1.83;;;1.23;;
25153;SDS011;47555;51.038;6.280;2022-08-21T08:59:47;4.75;;;1.40;;
25153;SDS011;47555;51.038;6.280;2022-08-21T09:02:16;2.75;;;1.13;;
25153;SDS011;47555;51.038;6.280;2022-08-21T09:04:42;3.08;;;1.73;;
25153;SDS011;47555;51.038;6.280;2022-08-21T09:07:22;4.60;;;1.27;;
25153;SDS011;47555;51.038;6.280;2022-08-21T09:10:02;3.42;;;1.60;;
25153;SDS011;47555;51.038;6.280;2022-08-21T09:12:47;2.22;;;1.10;;
25153;SDS011;47555;51.038;6.280;2022-08-21T09:15:29;4.00;;;1.10;;
25153;SDS011;47555;51.038;6.280;2022-08-21T09:20:58;3.53;;;1.30;;
25153;SDS011;47555;51.038;6.280;2022-08-21T09:26:15;2.75;;;1.20;;
25153;SDS011;47555;51.038;6.280;2022-08-21T09:28:50;2.90;;;1.17;;
25153;SDS011;47555;51.038;6.280;2022-08-21T09:31:30;2.78;;;1.13;;
25153;SDS011;47555;51.038;6.280;2022-08-21T09:34:02;2.90;;;1.40;;
25153;SDS011;47555;51.038;6.280;2022-08-21T09:38:59;3.85;;;1.33;;
25153;SDS011;47555;51.038;6.280;2022-08-21T09:41:28;3.15;;;1.25;;
25153;SDS011;47555;51.038;6.280;2022-08-21T09:43:56;3.70;;;1.42;;
25153;SDS011;47555;51.038;6.280;2022-08-21T09:46:24;5.30;;;1.50;;
25153;SDS011;47555;51.038;6.280;2022-08-21T09:48:52;5.13;;;1.55;;
25153;SDS011;47555;51.038;6.280;2022-08-21T09:51:31;2.45;;;1.33;;
25153;SDS011;47555;51.038;6.280;2022-08-21T09:56:37;4.90;;;1.65;;
25153;SDS011;47555;51.038;6.280;2022-08-21T09:59:39;2.47;;;1.50;;
25153;SDS011;47555;51.038;6.280;2022-08-21T10:05:00;2.67;;;1.20;;
25153;SDS011;47555;51.038;6.280;2022-08-21T10:07:29;4.72;;;1.55;;
25153;SDS011;47555;51.038;6.280;2022-08-21T10:10:00;4.22;;;1.55;;
25153;SDS011;47555;51.038;6.280;2022-08-21T10:12:33;5.40;;;1.70;;
25153;SDS011;47555;51.038;6.280;2022-08-21T10:17:58;4.38;;;1.50;;
25153;SDS011;47555;51.038;6.280;2022-08-21T10:20:45;4.72;;;1.48;;
25153;SDS011;47555;51.038;6.280;2022-08-21T10:25:44;6.07;;;1.90;;
25153;SDS011;47555;51.038;6.280;2022-08-21T10:28:22;3.53;;;1.50;;
25153;SDS011;47555;51.038;6.280;2022-08-21T10:36:37;4.28;;;1.30;;
25153;SDS011;47555;51.038;6.280;2022-08-21T10:39:19;4.43;;;1.45;;
25153;SDS011;47555;51.038;6.280;2022-08-21T10:47:41;3.70;;;1.63;;
25153;SDS011;47555;51.038;6.280;2022-08-21T10:53:36;3.53;;;1.30;;
25153;SDS011;47555;51.038;6.280;2022-08-21T10:58:50;2.70;;;1.30;;
25153;SDS011;47555;51.038;6.280;2022-08-21T11:01:48;2.85;;;1.27;;
25153;SDS011;47555;51.038;6.280;2022-08-21T11:04:19;2.35;;;1.23;;
25153;SDS011;47555;51.038;6.280;2022-08-21T11:06:52;3.80;;;1.60;;
25153;SDS011;47555;51.038;6.280;2022-08-21T11:09:24;3.78;;;1.95;;
25153;SDS011;47555;51.038;6.280;2022-08-21T11:11:54;2.15;;;1.17;;
25153;SDS011;47555;51.038;6.280;2022-08-21T11:17:18;3.33;;;1.50;;
25153;SDS011;47555;51.038;6.280;2022-08-21T11:20:05;2.97;;;1.20;;
25153;SDS011;47555;51.038;6.280;2022-08-21T11:22:53;4.63;;;1.63;;
25153;SDS011;47555;51.038;6.280;2022-08-21T11:25:27;3.05;;;1.45;;
25153;SDS011;47555;51.038;6.280;2022-08-21T11:28:17;2.10;;;1.20;;
25153;SDS011;47555;51.038;6.280;2022-08-21T11:30:56;3.90;;;1.40;;
25153;SDS011;47555;51.038;6.280;2022-08-21T11:36:41;3.42;;;1.30;;
25153;SDS011;47555;51.038;6.280;2022-08-21T11:39:24;2.40;;;1.25;;
25153;SDS011;47555;51.038;6.280;2022-08-21T11:42:30;4.78;;;1.60;;
25153;SDS011;47555;51.038;6.280;2022-08-21T11:45:14;3.10;;;1.30;;
25153;SDS011;47555;51.038;6.280;2022-08-21T11:48:27;2.38;;;1.42;;
25153;SDS011;47555;51.038;6.280;2022-08-21T11:51:05;3.28;;;1.50;;
25153;SDS011;47555;51.038;6.280;2022-08-21T11:56:15;4.72;;;1.30;;
25153;SDS011;47555;51.038;6.280;2022-08-21T11:59:09;4.45;;;1.30;;
25153;SDS011;47555;51.038;6.280;2022-08-21T12:01:43;1.63;;;0.95;;
25153;SDS011;47555;51.038;6.280;2022-08-21T12:04:26;3.38;;;1.65;;
25153;SDS011;47555;51.038;6.280;2022-08-21T12:07:08;2.80;;;1.35;;
25153;SDS011;47555;51.038;6.280;2022-08-21T12:09:38;4.13;;;1.63;;
25153;SDS011;47555;51.038;6.280;2022-08-21T12:12:11;2.35;;;1.20;;
25153;SDS011;47555;51.038;6.280;2022-08-21T12:14:51;3.83;;;1.30;;
25153;SDS011;47555;51.038;6.280;2022-08-21T12:17:35;3.35;;;1.30;;
25153;SDS011;47555;51.038;6.280;2022-08-21T12:20:57;4.28;;;1.20;;
25153;SDS011;47555;51.038;6.280;2022-08-21T12:25:39;3.05;;;1.40;;
25153;SDS011;47555;51.038;6.280;2022-08-21T12:28:08;3.58;;;1.20;;
25153;SDS011;47555;51.038;6.280;2022-08-21T12:30:38;3.05;;;1.20;;
25153;SDS011;47555;51.038;6.280;2022-08-21T12:33:16;1.92;;;1.10;;
25153;SDS011;47555;51.038;6.280;2022-08-21T12:38:46;3.30;;;1.30;;
25153;SDS011;47555;51.038;6.280;2022-08-21T12:41:20;2.33;;;1.20;;
25153;SDS011;47555;51.038;6.280;2022-08-21T12:44:10;2.45;;;1.10;;
25153;SDS011;47555;51.038;6.280;2022-08-21T12:46:42;4.18;;;1.38;;
25153;SDS011;47555;51.038;6.280;2022-08-21T12:49:16;2.08;;;1.00;;
25153;SDS011;47555;51.038;6.280;2022-08-21T12:51:54;1.95;;;1.00;;
25153;SDS011;47555;51.038;6.280;2022-08-21T12:54:27;4.32;;;1.42;;
25153;SDS011;47555;51.038;6.280;2022-08-21T12:57:02;3.75;;;1.20;;
25153;SDS011;47555;51.038;6.280;2022-08-21T12:59:30;4.28;;;1.27;;
25153;SDS011;47555;51.038;6.280;2022-08-21T13:01:57;2.63;;;1.20;;
25153;SDS011;47555;51.038;6.280;2022-08-21T13:04:35;2.83;;;1.00;;
25153;SDS011;47555;51.038;6.280;2022-08-21T13:07:08;2.17;;;1.08;;
25153;SDS011;47555;51.038;6.280;2022-08-21T13:09:40;1.42;;;0.90;;
25153;SDS011;47555;51.038;6.280;2022-08-21T13:12:12;2.25;;;1.10;;
25153;SDS011;47555;51.038;6.280;2022-08-21T13:14:41;4.65;;;1.33;;
25153;SDS011;47555;51.038;6.280;2022-08-21T13:17:09;1.65;;;1.20;;
25153;SDS011;47555;51.038;6.280;2022-08-21T13:19:36;3.72;;;1.27;;
25153;SDS011;47555;51.038;6.280;2022-08-21T13:22:02;2.20;;;1.00;;
25153;SDS011;47555;51.038;6.280;2022-08-21T13:24:29;1.77;;;1.20;;
25153;SDS011;47555;51.038;6.280;2022-08-21T13:29:29;2.78;;;1.25;;
25153;SDS011;47555;51.038;6.280;2022-08-21T13:34:26;4.13;;;1.15;;
25153;SDS011;47555;51.038;6.280;2022-08-21T13:36:57;2.75;;;1.17;;
25153;SDS011;47555;51.038;6.280;2022-08-21T13:39:26;1.50;;;1.05;;
25153;SDS011;47555;51.038;6.280;2022-08-21T13:41:54;4.15;;;1.33;;
25153;SDS011;47555;51.038;6.280;2022-08-21T13:44:33;4.45;;;1.30;;
25153;SDS011;47555;51.038;6.280;2022-08-21T13:47:11;3.47;;;1.17;;
25153;SDS011;47555;51.038;6.280;2022-08-21T13:49:47;2.20;;;1.20;;
25153;SDS011;47555;51.038;6.280;2022-08-21T13:52:23;3.13;;;1.30;;
25153;SDS011;47555;51.038;6.280;2022-08-21T13:54:55;3.30;;;1.38;;
25153;SDS011;47555;51.038;6.280;2022-08-21T13:57:27;2.63;;;1.20;;
25153;SDS011;47555;51.038;6.280;2022-08-21T14:00:11;4.72;;;1.30;;
25153;SDS011;47555;51.038;6.280;2022-08-21T14:02:50;2.60;;;1.40;;
25153;SDS011;47555;51.038;6.280;2022-08-21T14:05:21;4.95;;;1.27;;
25153;SDS011;47555;51.038;6.280;2022-08-21T14:07:56;4.40;;;1.45;;
25153;SDS011;47555;51.038;6.280;2022-08-21T14:10:43;2.88;;;1.25;;
25153;SDS011;47555;51.038;6.280;2022-08-21T14:13:26;2.80;;;1.35;;
25153;SDS011;47555;51.038;6.280;2022-08-21T14:16:00;5.35;;;1.52;;
25153;SDS011;47555;51.038;6.280;2022-08-21T14:18:27;3.65;;;1.60;;
25153;SDS011;47555;51.038;6.280;2022-08-21T14:21:06;3.00;;;1.30;;
25153;SDS011;47555;51.038;6.280;2022-08-21T14:23:34;4.63;;;1.40;;
25153;SDS011;47555;51.038;6.280;2022-08-21T14:26:00;2.88;;;1.15;;
25153;SDS011;47555;51.038;6.280;2022-08-21T14:28:30;3.25;;;1.33;;
25153;SDS011;47555;51.038;6.280;2022-08-21T14:30:58;2.45;;;1.50;;
25153;SDS011;47555;51.038;6.280;2022-08-21T14:33:37;2.35;;;1.23;;
25153;SDS011;47555;51.038;6.280;2022-08-21T14:36:02;3.58;;;1.33;;
25153;SDS011;47555;51.038;6.280;2022-08-21T14:38:28;3.88;;;1.27;;
25153;SDS011;47555;51.038;6.280;2022-08-21T14:40:56;2.03;;;1.30;;
25153;SDS011;47555;51.038;6.280;2022-08-21T14:43:24;2.67;;;1.10;;
25153;SDS011;47555;51.038;6.280;2022-08-21T14:45:51;3.05;;;1.30;;
25153;SDS011;47555;51.038;6.280;2022-08-21T14:48:17;2.92;;;1.13;;
25153;SDS011;47555;51.038;6.280;2022-08-21T14:50:42;3.15;;;1.25;;
25153;SDS011;47555;51.038;6.280;2022-08-21T14:53:08;3.88;;;1.38;;
25153;SDS011;47555;51.038;6.280;2022-08-21T14:55:34;4.25;;;1.20;;
25153;SDS011;47555;51.038;6.280;2022-08-21T14:58:18;3.28;;;1.25;;
25153;SDS011;47555;51.038;6.280;2022-08-21T15:00:44;2.33;;;1.30;;
25153;SDS011;47555;51.038;6.280;2022-08-21T15:03:10;2.35;;;1.30;;
25153;SDS011;47555;51.038;6.280;2022-08-21T15:05:38;2.90;;;1.10;;
25153;SDS011;47555;51.038;6.280;2022-08-21T15:08:04;4.28;;;1.25;;
25153;SDS011;47555;51.038;6.280;2022-08-21T15:10:30;2.42;;;1.13;;
25153;SDS011;47555;51.038;6.280;2022-08-21T15:12:57;2.45;;;1.23;;
25153;SDS011;47555;51.038;6.280;2022-08-21T15:15:22;2.83;;;1.20;;
25153;SDS011;47555;51.038;6.280;2022-08-21T15:17:51;3.70;;;1.40;;
25153;SDS011;47555;51.038;6.280;2022-08-21T15:20:16;4.70;;;1.10;;
25153;SDS011;47555;51.038;6.280;2022-08-21T15:22:42;2.92;;;1.15;;
25153;SDS011;47555;51.038;6.280;2022-08-21T15:25:07;2.45;;;1.20;;
25153;SDS011;47555;51.038;6.280;2022-08-21T15:27:33;4.65;;;1.35;;
25153;SDS011;47555;51.038;6.280;2022-08-21T15:29:59;2.35;;;1.42;;
25153;SDS011;47555;51.038;6.280;2022-08-21T15:32:27;1.55;;;0.90;;
25153;SDS011;47555;51.038;6.280;2022-08-21T15:34:54;3.83;;;1.30;;
25153;SDS011;47555;51.038;6.280;2022-08-21T15:37:20;3.90;;;1.20;;
25153;SDS011;47555;51.038;6.280;2022-08-21T15:39:48;3.28;;;1.35;;
25153;SDS011;47555;51.038;6.280;2022-08-21T15:42:14;3.03;;;1.40;;
25153;SDS011;47555;51.038;6.280;2022-08-21T15:44:40;4.00;;;1.17;;
25153;SDS011;47555;51.038;6.280;2022-08-21T15:47:11;2.50;;;1.35;;
25153;SDS011;47555;51.038;6.280;2022-08-21T15:49:39;6.10;;;2.05;;
25153;SDS011;47555;51.038;6.280;2022-08-21T15:52:07;3.85;;;1.30;;
25153;SDS011;47555;51.038;6.280;2022-08-21T15:54:33;1.90;;;1.15;;
25153;SDS011;47555;51.038;6.280;2022-08-21T15:56:59;3.22;;;1.35;;
25153;SDS011;47555;51.038;6.280;2022-08-21T15:59:24;3.50;;;1.13;;
25153;SDS011;47555;51.038;6.280;2022-08-21T16:01:51;4.63;;;1.83;;